createdAt,value
2018-07-03T18:03:03.477Z,1.10
2018-07-03T18:04:56.191Z,1.80
2018-07-03T18:05:56.919Z,1.40
2018-07-03T18:06:56.375Z,1.50
2018-07-03T18:07:56.312Z,1.70
2018-07-03T18:08:55.935Z,1.40
2018-07-03T18:09:55.927Z,1.80
2018-07-03T18:10:55.923Z,1.60
2018-07-03T18:11:55.881Z,1.70
2018-07-03T18:12:55.836Z,1.70
2018-07-03T18:13:55.995Z,1.60
2018-07-03T18:14:55.923Z,1.60
2018-07-03T18:15:56.208Z,1.70
2018-07-03T18:16:56.071Z,1.60
2018-07-03T18:17:56.056Z,1.50
2018-07-03T18:18:55.992Z,1.60
2018-07-03T18:19:55.995Z,1.60
2018-07-03T18:20:55.984Z,1.60
2018-07-03T18:21:55.941Z,1.50
2018-07-03T18:22:55.902Z,1.50
2018-07-03T18:23:55.927Z,1.80
2018-07-03T18:24:56.035Z,1.60
2018-07-03T18:25:55.779Z,1.50
2018-07-03T18:26:55.413Z,1.60
2018-07-03T18:27:55.764Z,1.50
2018-07-03T18:28:55.764Z,1.80
2018-07-03T18:29:55.693Z,1.40
2018-07-03T18:30:55.679Z,1.60
2018-07-03T18:31:55.621Z,1.50
2018-07-03T18:32:55.674Z,1.60
2018-07-03T18:33:55.528Z,1.50
2018-07-03T18:34:55.553Z,1.40
2018-07-03T18:35:55.106Z,1.60
2018-07-03T18:36:55.504Z,1.60
2018-07-03T18:37:55.485Z,1.40
2018-07-03T18:38:55.450Z,1.50
2018-07-03T18:39:55.413Z,1.40
2018-07-03T18:40:55.347Z,1.30
2018-07-03T18:41:55.364Z,1.70
2018-07-03T18:42:55.323Z,1.40
2018-07-03T18:43:55.248Z,1.50
2018-07-03T18:44:55.224Z,1.50
2018-07-03T18:45:55.225Z,1.40
2018-07-03T18:46:55.262Z,1.40
2018-07-03T18:47:55.213Z,1.50
2018-07-03T18:48:55.162Z,1.50
2018-07-03T18:49:55.193Z,1.50
2018-07-03T18:50:55.064Z,1.60
2018-07-03T18:51:55.146Z,1.60
2018-07-03T18:52:55.033Z,1.30
2018-07-03T18:53:55.026Z,1.40
2018-07-03T18:54:54.931Z,1.50
2018-07-03T18:55:54.938Z,1.80
2018-07-03T18:56:54.948Z,1.70
2018-07-03T18:57:54.509Z,1.40
2018-07-03T18:58:54.791Z,1.50
2018-07-03T18:59:54.829Z,1.40
2018-07-03T19:00:54.788Z,1.40
2018-07-03T19:01:54.735Z,1.60
2018-07-03T19:02:54.803Z,1.40
2018-07-03T19:03:54.656Z,1.50
2018-07-03T19:04:54.742Z,1.60
2018-07-03T19:05:54.575Z,1.40
2018-07-03T19:06:54.616Z,1.50
2018-07-03T19:07:54.535Z,1.70
2018-07-03T19:08:54.516Z,1.70
2018-07-03T19:09:54.476Z,2.00
2018-07-03T19:10:54.469Z,1.70
2018-07-03T19:11:54.421Z,1.80
2018-07-03T19:12:54.397Z,1.70
2018-07-03T19:13:53.917Z,1.60
2018-07-03T19:14:54.476Z,1.80
2018-07-03T19:15:54.308Z,1.60
2018-07-03T19:16:54.227Z,1.50
2018-07-03T19:17:54.254Z,1.80
2018-07-03T19:18:54.239Z,1.60
2018-07-03T19:19:54.143Z,1.60
2018-07-03T19:20:54.110Z,1.80
2018-07-03T19:21:54.073Z,1.70
2018-07-03T19:22:54.051Z,1.70
2018-07-03T19:23:54.103Z,1.80
2018-07-03T19:24:53.968Z,1.70
2018-07-03T19:25:53.904Z,1.80
2018-07-03T19:26:53.956Z,1.90
2018-07-03T19:27:53.885Z,2.10
2018-07-03T19:28:53.479Z,2.10
2018-07-03T19:29:53.817Z,2.40
2018-07-03T19:30:53.740Z,2.60
2018-07-03T19:31:53.724Z,2.60
2018-07-03T19:32:53.755Z,2.90
2018-07-03T19:33:53.721Z,2.90
2018-07-03T19:34:53.696Z,2.60
2018-07-03T19:35:53.681Z,2.30
2018-07-03T19:36:53.629Z,2.80
2018-07-03T19:37:53.495Z,2.60
2018-07-03T19:38:53.490Z,2.80
2018-07-03T19:39:53.503Z,2.40
2018-07-03T19:40:53.469Z,2.50
2018-07-03T19:41:53.438Z,3.00
2018-07-03T19:42:53.450Z,3.40
2018-07-03T19:43:53.401Z,3.60
2018-07-03T19:44:53.349Z,3.30
2018-07-03T19:45:53.246Z,3.60
2018-07-03T19:46:53.246Z,3.50
2018-07-03T19:47:53.228Z,3.30
2018-07-03T19:48:53.228Z,3.40
2018-07-03T19:49:52.856Z,3.20
2018-07-03T19:50:53.191Z,3.50
2018-07-03T19:51:53.051Z,3.40
2018-07-03T19:52:53.057Z,3.10
2018-07-03T19:53:52.966Z,3.10
2018-07-03T19:54:52.969Z,2.60
2018-07-03T19:55:53.049Z,2.80
2018-07-03T19:56:52.976Z,2.70
2018-07-03T19:57:52.933Z,2.40
2018-07-03T19:58:52.913Z,2.20
2018-07-03T19:59:52.904Z,2.70
2018-07-03T20:00:52.857Z,2.60
2018-07-03T20:01:52.792Z,2.60
2018-07-03T20:02:52.764Z,2.60
2018-07-03T20:03:52.736Z,2.90
2018-07-03T20:04:52.716Z,2.60
2018-07-03T20:05:53.200Z,2.50
2018-07-03T20:06:52.234Z,3.00
2018-07-03T20:07:52.628Z,3.00
2018-07-03T20:08:52.552Z,2.70
2018-07-03T20:09:52.063Z,3.20
2018-07-03T20:10:52.049Z,3.00
2018-07-03T20:11:52.013Z,2.80
2018-07-03T20:12:52.012Z,3.10
2018-07-03T20:13:51.929Z,3.10
2018-07-03T20:14:51.899Z,3.00
2018-07-03T20:15:51.860Z,2.70
2018-07-03T20:16:51.844Z,2.40
2018-07-03T20:17:51.823Z,2.10
2018-07-03T20:18:51.823Z,2.50
2018-07-03T20:19:51.720Z,2.60
2018-07-03T20:20:51.700Z,2.70
2018-07-03T20:21:51.686Z,2.60
2018-07-03T20:22:51.641Z,2.70
2018-07-03T20:23:51.586Z,2.20
2018-07-03T20:24:51.547Z,2.70
2018-07-03T20:25:51.514Z,2.40
2018-07-03T20:26:51.499Z,2.50
2018-07-03T20:27:51.441Z,2.50
2018-07-03T20:28:51.410Z,2.20
2018-07-03T20:29:51.394Z,2.50
2018-07-03T20:30:51.365Z,2.10
2018-07-03T20:31:51.394Z,2.50
2018-07-03T20:32:51.274Z,2.20
2018-07-03T20:33:51.250Z,2.30
2018-07-03T20:34:51.192Z,2.40
2018-07-03T20:35:51.168Z,2.30
2018-07-03T20:36:51.130Z,2.20
2018-07-03T20:37:51.124Z,2.50
2018-07-03T20:38:51.064Z,2.20
2018-07-03T20:39:51.059Z,2.70
2018-07-03T20:40:51.018Z,2.80
2018-07-03T20:41:50.986Z,2.70
2018-07-03T20:42:50.914Z,2.50
2018-07-03T20:43:50.910Z,2.50
2018-07-03T20:44:50.850Z,2.40
2018-07-03T20:45:50.801Z,2.60
2018-07-03T20:46:50.795Z,2.50
2018-07-03T20:47:50.741Z,2.50
2018-07-03T20:48:50.726Z,2.50
2018-07-03T20:49:50.677Z,2.60
2018-07-03T20:50:50.640Z,2.60
2018-07-03T20:51:50.668Z,2.60
2018-07-03T20:52:50.548Z,2.80
2018-07-03T20:53:50.526Z,2.80
2018-07-03T20:54:50.535Z,2.60
2018-07-03T20:55:50.513Z,3.00
2018-07-03T20:56:50.423Z,2.60
2018-07-03T20:57:50.394Z,2.60
2018-07-03T20:58:50.377Z,2.60
2018-07-03T20:59:50.307Z,2.50
2018-07-03T21:00:50.264Z,2.60
2018-07-03T21:01:50.244Z,2.80
2018-07-03T21:02:50.210Z,2.50
2018-07-03T21:03:50.237Z,2.80
2018-07-03T21:04:50.125Z,2.40
2018-07-03T21:05:50.228Z,2.70
2018-07-03T21:06:50.058Z,2.10
2018-07-03T21:07:50.018Z,2.60
2018-07-03T21:08:49.996Z,2.60
2018-07-03T21:09:49.969Z,2.40
2018-07-03T21:10:49.923Z,2.30
2018-07-03T21:11:49.886Z,2.40
2018-07-03T21:12:49.839Z,2.30
2018-07-03T21:13:49.822Z,2.20
2018-07-03T21:14:49.773Z,2.30
2018-07-03T21:15:49.736Z,2.30
2018-07-03T21:16:49.748Z,2.50
2018-07-03T21:17:49.675Z,2.20
2018-07-03T21:18:49.622Z,2.50
2018-07-03T21:19:49.596Z,2.10
2018-07-03T21:20:49.567Z,2.30
2018-07-03T21:21:49.555Z,2.40
2018-07-03T21:22:49.498Z,2.20
2018-07-03T21:23:49.509Z,2.20
2018-07-03T21:24:49.426Z,2.50
2018-07-03T21:25:49.382Z,2.50
2018-07-03T21:26:49.344Z,2.50
2018-07-03T21:27:49.329Z,2.10
2018-07-03T21:28:49.275Z,2.30
2018-07-03T21:29:49.250Z,2.30
2018-07-03T21:30:49.195Z,2.40
2018-07-03T21:31:49.192Z,2.70
2018-07-03T21:32:49.107Z,2.20
2018-07-03T21:33:49.087Z,2.30
2018-07-03T21:34:49.091Z,2.30
2018-07-03T21:35:49.028Z,2.50
2018-07-03T21:36:48.972Z,2.30
2018-07-03T21:37:48.919Z,2.20
2018-07-03T21:38:48.969Z,2.30
2018-07-03T21:39:48.862Z,2.30
2018-07-03T21:40:48.832Z,2.30
2018-07-03T21:41:48.784Z,2.40
2018-07-03T21:42:48.740Z,2.20
2018-07-03T21:43:48.783Z,2.50
2018-07-03T21:44:48.714Z,2.90
2018-07-03T21:45:48.649Z,2.40
2018-07-03T21:46:48.614Z,2.40
2018-07-03T21:47:48.581Z,2.50
2018-07-03T21:48:48.545Z,2.30
2018-07-03T21:49:48.525Z,2.40
2018-07-03T21:50:48.472Z,2.20
2018-07-03T21:51:48.428Z,2.40
2018-07-03T21:52:48.417Z,2.10
2018-07-03T21:53:48.373Z,2.50
2018-07-03T21:54:48.338Z,2.50
2018-07-03T21:55:48.316Z,2.50
2018-07-03T21:56:48.237Z,2.50
2018-07-03T21:57:48.209Z,2.40
2018-07-03T21:58:48.190Z,2.90
2018-07-03T21:59:48.182Z,2.40
2018-07-03T22:00:48.107Z,2.70
2018-07-03T22:01:48.096Z,2.60
2018-07-03T22:02:48.002Z,2.50
2018-07-03T22:03:47.998Z,2.70
2018-07-03T22:04:47.991Z,2.30
2018-07-03T22:05:47.887Z,2.40
2018-07-03T22:06:47.881Z,2.60
2018-07-03T22:07:47.822Z,2.30
2018-07-03T22:08:47.782Z,2.50
2018-07-03T22:09:47.744Z,2.60
2018-07-03T22:10:47.733Z,2.40
2018-07-03T22:11:47.721Z,2.50
2018-07-03T22:12:47.634Z,2.70
2018-07-03T22:13:47.610Z,2.40
2018-07-03T22:14:47.561Z,2.40
2018-07-03T22:15:47.522Z,2.40
2018-07-03T22:16:47.483Z,2.40
2018-07-03T22:17:47.454Z,2.30
2018-07-03T22:18:47.459Z,2.60
2018-07-03T22:19:47.386Z,2.50
2018-07-03T22:20:47.335Z,2.30
2018-07-03T22:21:47.366Z,2.70
2018-07-03T22:22:47.262Z,2.60
2018-07-03T22:23:47.209Z,2.40
2018-07-03T22:24:47.174Z,2.60
2018-07-03T22:25:47.138Z,2.50
2018-07-03T22:26:47.114Z,2.50
2018-07-03T22:27:47.072Z,2.30
2018-07-03T22:28:47.090Z,2.50
2018-07-03T22:29:47.100Z,2.40
2018-07-03T22:30:46.968Z,2.40
2018-07-03T22:31:46.939Z,2.50
2018-07-03T22:32:46.926Z,2.60
2018-07-03T22:33:46.846Z,2.30
2018-07-03T22:34:46.862Z,2.40
2018-07-03T22:35:46.772Z,2.50
2018-07-03T22:36:46.728Z,2.50
2018-07-03T22:37:46.693Z,2.50
2018-07-03T22:38:46.811Z,2.60
2018-07-03T22:39:46.752Z,2.40
2018-07-03T22:40:46.594Z,2.40
2018-07-03T22:41:46.554Z,2.10
2018-07-03T22:42:46.601Z,2.60
2018-07-03T22:43:46.471Z,2.50
2018-07-03T22:44:46.423Z,2.60
2018-07-03T22:45:46.406Z,2.90
2018-07-03T22:46:46.401Z,2.60
2018-07-03T22:47:46.312Z,3.00
2018-07-03T22:48:46.336Z,2.70
2018-07-03T22:49:46.289Z,2.60
2018-07-03T22:50:46.203Z,2.60
2018-07-03T22:51:46.162Z,2.30
2018-07-03T22:52:46.195Z,2.50
2018-07-03T22:53:46.098Z,2.30
2018-07-03T22:54:46.059Z,2.60
2018-07-03T22:55:46.011Z,2.20
2018-07-03T22:56:45.985Z,2.40
2018-07-03T22:57:45.938Z,2.40
2018-07-03T22:58:45.895Z,2.40
2018-07-03T22:59:45.865Z,2.50
2018-07-03T23:00:45.832Z,2.50
2018-07-03T23:01:45.806Z,2.40
2018-07-03T23:02:45.763Z,2.50
2018-07-03T23:03:45.744Z,2.50
2018-07-03T23:04:45.659Z,2.60
2018-07-03T23:05:45.660Z,2.30
2018-07-03T23:06:45.620Z,2.60
2018-07-03T23:07:45.572Z,2.60
2018-07-03T23:08:45.533Z,2.80
2018-07-03T23:09:45.479Z,2.50
2018-07-03T23:10:45.456Z,2.50
2018-07-03T23:11:45.400Z,2.40
2018-07-03T23:12:45.374Z,2.50
2018-07-03T23:13:45.313Z,2.50
2018-07-03T23:14:45.309Z,2.60
2018-07-03T23:15:45.246Z,2.70
2018-07-03T23:16:45.214Z,2.60
2018-07-03T23:17:45.185Z,2.40
2018-07-03T23:18:45.150Z,2.70
2018-07-03T23:19:45.094Z,2.50
2018-07-03T23:20:45.064Z,2.40
2018-07-03T23:21:45.036Z,2.60
2018-07-03T23:22:44.986Z,2.80
2018-07-03T23:23:44.932Z,2.60
2018-07-03T23:24:44.911Z,2.70
2018-07-03T23:25:44.858Z,2.60
2018-07-03T23:26:44.834Z,2.70
2018-07-03T23:27:44.792Z,2.50
2018-07-03T23:28:44.746Z,2.50
2018-07-03T23:29:44.715Z,2.40
2018-07-03T23:30:44.674Z,2.50
2018-07-03T23:31:44.635Z,2.60
2018-07-03T23:32:44.663Z,2.30
2018-07-03T23:33:44.569Z,2.90
2018-07-03T23:34:44.507Z,2.40
2018-07-03T23:35:44.470Z,2.50
2018-07-03T23:36:44.442Z,2.70
2018-07-03T23:37:44.400Z,2.70
2018-07-03T23:38:44.387Z,2.20
2018-07-03T23:39:44.333Z,2.50
2018-07-03T23:40:44.345Z,2.70
2018-07-03T23:41:44.235Z,2.70
2018-07-03T23:42:44.224Z,2.60
2018-07-03T23:43:44.179Z,2.80
2018-07-03T23:44:44.153Z,2.60
2018-07-03T23:45:44.106Z,2.50
2018-07-03T23:46:44.086Z,2.70
2018-07-03T23:47:44.016Z,2.30
2018-07-03T23:48:43.993Z,2.50
2018-07-03T23:49:43.947Z,2.50
2018-07-03T23:50:43.907Z,2.80
2018-07-03T23:51:43.859Z,2.50
2018-07-03T23:52:43.843Z,2.70
2018-07-03T23:53:43.821Z,2.40
2018-07-03T23:54:43.750Z,2.60
2018-07-03T23:55:43.789Z,2.60
2018-07-03T23:56:43.723Z,2.50
2018-07-03T23:57:43.631Z,2.50
2018-07-03T23:58:43.600Z,2.80
2018-07-03T23:59:43.557Z,2.50
